sensor_id;sensor_type;location;lat;lon;timestamp;pressure;altitude;pressure_sealevel;temperature;humidity
18678;BME280;9469;51.114;13.914;2022-12-18T00:00:39;100282.41;;;-4.43;100.00
18678;BME280;9469;51.114;13.914;2022-12-18T00:05:47;100274.81;;;-4.53;100.00
18678;BME280;9469;51.114;13.914;2022-12-18T00:10:53;100271.41;;;-4.53;100.00
18678;BME280;9469;51.114;13.914;2022-12-18T00:16:07;100285.22;;;-4.69;100.00
18678;BME280;9469;51.114;13.914;2022-12-18T00:21:12;100278.56;;;-4.71;100.00
18678;BME280;9469;51.114;13.914;2022-12-18T00:26:20;100291.88;;;-4.82;100.00
18678;BME280;9469;51.114;13.914;2022-12-18T00:31:34;100296.09;;;-4.57;100.00
18678;BME280;9469;51.114;13.914;2022-12-18T00:36:40;100309.63;;;-4.15;100.00
18678;BME280;9469;51.114;13.914;2022-12-18T00:41:46;100317.28;;;-4.21;100.00
18678;BME280;9469;51.114;13.914;2022-12-18T00:47:06;100329.69;;;-4.72;100.00
18678;BME280;9469;51.114;13.914;2022-12-18T00:52:11;100328.53;;;-5.01;100.00
18678;BME280;9469;51.114;13.914;2022-12-18T00:57:16;100340.06;;;-4.96;100.00
18678;BME280;9469;51.114;13.914;2022-12-18T01:02:23;100345.88;;;-5.18;100.00
18678;BME280;9469;51.114;13.914;2022-12-18T01:07:29;100338.81;;;-5.50;100.00
18678;BME280;9469;51.114;13.914;2022-12-18T01:12:36;100334.50;;;-5.75;100.00
18678;BME280;9469;51.114;13.914;2022-12-18T01:17:44;100336.84;;;-5.56;100.00
18678;BME280;9469;51.114;13.914;2022-12-18T01:22:49;100342.38;;;-5.51;100.00
18678;BME280;9469;51.114;13.914;2022-12-18T01:27:54;100343.28;;;-5.68;100.00
18678;BME280;9469;51.114;13.914;2022-12-18T01:33:03;100344.44;;;-5.62;100.00
18678;BME280;9469;51.114;13.914;2022-12-18T01:38:10;100344.75;;;-5.16;100.00
18678;BME280;9469;51.114;13.914;2022-12-18T01:43:14;100339.03;;;-5.27;100.00
18678;BME280;9469;51.114;13.914;2022-12-18T01:48:23;100350.88;;;-5.25;100.00
18678;BME280;9469;51.114;13.914;2022-12-18T01:53:28;100350.38;;;-5.36;100.00
18678;BME280;9469;51.114;13.914;2022-12-18T01:58:39;100353.50;;;-4.92;100.00
18678;BME280;9469;51.114;13.914;2022-12-18T02:03:48;100364.09;;;-5.52;100.00
18678;BME280;9469;51.114;13.914;2022-12-18T02:09:01;100358.84;;;-5.68;100.00
18678;BME280;9469;51.114;13.914;2022-12-18T02:14:16;100358.28;;;-5.88;100.00
18678;BME280;9469;51.114;13.914;2022-12-18T02:19:47;100356.66;;;-5.81;100.00
18678;BME280;9469;51.114;13.914;2022-12-18T02:25:09;100357.03;;;-6.09;100.00
18678;BME280;9469;51.114;13.914;2022-12-18T02:30:20;100363.44;;;-6.21;100.00
18678;BME280;9469;51.114;13.914;2022-12-18T02:35:28;100364.75;;;-6.17;100.00
18678;BME280;9469;51.114;13.914;2022-12-18T02:40:36;100365.91;;;-6.20;100.00
18678;BME280;9469;51.114;13.914;2022-12-18T02:45:50;100367.34;;;-6.17;100.00
18678;BME280;9469;51.114;13.914;2022-12-18T02:51:02;100367.91;;;-6.31;100.00
18678;BME280;9469;51.114;13.914;2022-12-18T02:56:12;100368.25;;;-6.26;100.00
18678;BME280;9469;51.114;13.914;2022-12-18T03:01:25;100374.91;;;-6.24;100.00
18678;BME280;9469;51.114;13.914;2022-12-18T03:06:38;100365.47;;;-6.33;100.00
18678;BME280;9469;51.114;13.914;2022-12-18T03:11:49;100358.59;;;-6.24;100.00
18678;BME280;9469;51.114;13.914;2022-12-18T03:17:18;100359.91;;;-6.20;100.00
18678;BME280;9469;51.114;13.914;2022-12-18T03:22:27;100372.94;;;-6.04;100.00
18678;BME280;9469;51.114;13.914;2022-12-18T03:27:37;100365.19;;;-6.04;100.00
18678;BME280;9469;51.114;13.914;2022-12-18T03:32:53;100373.81;;;-5.96;100.00
18678;BME280;9469;51.114;13.914;2022-12-18T03:38:03;100373.28;;;-5.99;100.00
18678;BME280;9469;51.114;13.914;2022-12-18T03:43:19;100376.09;;;-5.93;100.00
18678;BME280;9469;51.114;13.914;2022-12-18T03:48:30;100383.69;;;-6.17;100.00
18678;BME280;9469;51.114;13.914;2022-12-18T03:53:47;100393.16;;;-6.08;100.00
18678;BME280;9469;51.114;13.914;2022-12-18T03:58:59;100384.03;;;-6.20;100.00
18678;BME280;9469;51.114;13.914;2022-12-18T04:04:10;100390.25;;;-6.05;100.00
18678;BME280;9469;51.114;13.914;2022-12-18T04:09:18;100395.72;;;-5.82;100.00
18678;BME280;9469;51.114;13.914;2022-12-18T04:14:25;100391.31;;;-5.90;100.00
18678;BME280;9469;51.114;13.914;2022-12-18T04:19:34;100403.69;;;-6.09;100.00
18678;BME280;9469;51.114;13.914;2022-12-18T04:24:39;100401.44;;;-6.04;100.00
18678;BME280;9469;51.114;13.914;2022-12-18T04:30:03;100405.91;;;-6.14;100.00
18678;BME280;9469;51.114;13.914;2022-12-18T04:35:11;100413.75;;;-6.06;100.00
18678;BME280;9469;51.114;13.914;2022-12-18T04:40:18;100415.34;;;-6.05;100.00
18678;BME280;9469;51.114;13.914;2022-12-18T04:45:24;100425.50;;;-6.12;100.00
18678;BME280;9469;51.114;13.914;2022-12-18T04:50:32;100429.59;;;-6.09;100.00
18678;BME280;9469;51.114;13.914;2022-12-18T04:55:37;100429.41;;;-6.08;100.00
18678;BME280;9469;51.114;13.914;2022-12-18T05:00:41;100422.09;;;-6.12;100.00
18678;BME280;9469;51.114;13.914;2022-12-18T05:05:51;100411.53;;;-6.19;100.00
18678;BME280;9469;51.114;13.914;2022-12-18T05:11:01;100414.22;;;-6.28;100.00
18678;BME280;9469;51.114;13.914;2022-12-18T05:16:07;100417.56;;;-6.36;100.00
18678;BME280;9469;51.114;13.914;2022-12-18T05:21:14;100419.78;;;-6.41;100.00
18678;BME280;9469;51.114;13.914;2022-12-18T05:26:20;100416.16;;;-6.48;100.00
18678;BME280;9469;51.114;13.914;2022-12-18T05:31:24;100424.38;;;-6.52;100.00
18678;BME280;9469;51.114;13.914;2022-12-18T05:36:32;100428.63;;;-6.51;100.00
18678;BME280;9469;51.114;13.914;2022-12-18T05:41:37;100427.19;;;-6.64;100.00
18678;BME280;9469;51.114;13.914;2022-12-18T05:46:42;100437.19;;;-6.69;100.00
18678;BME280;9469;51.114;13.914;2022-12-18T05:51:50;100439.94;;;-6.70;100.00
18678;BME280;9469;51.114;13.914;2022-12-18T05:56:55;100432.22;;;-6.80;100.00
18678;BME280;9469;51.114;13.914;2022-12-18T06:02:00;100449.38;;;-6.79;100.00
18678;BME280;9469;51.114;13.914;2022-12-18T06:07:08;100440.75;;;-6.70;100.00
18678;BME280;9469;51.114;13.914;2022-12-18T06:12:12;100443.34;;;-6.70;100.00
18678;BME280;9469;51.114;13.914;2022-12-18T06:17:18;100455.28;;;-6.86;100.00
18678;BME280;9469;51.114;13.914;2022-12-18T06:22:25;100449.16;;;-6.68;100.00
18678;BME280;9469;51.114;13.914;2022-12-18T06:27:30;100450.06;;;-6.77;100.00
18678;BME280;9469;51.114;13.914;2022-12-18T06:32:35;100463.56;;;-6.83;100.00
18678;BME280;9469;51.114;13.914;2022-12-18T06:37:43;100465.63;;;-6.86;100.00
18678;BME280;9469;51.114;13.914;2022-12-18T06:42:48;100452.69;;;-7.04;100.00
18678;BME280;9469;51.114;13.914;2022-12-18T06:47:54;100466.22;;;-6.92;100.00
18678;BME280;9469;51.114;13.914;2022-12-18T06:53:03;100476.22;;;-6.80;100.00
18678;BME280;9469;51.114;13.914;2022-12-18T06:58:08;100483.41;;;-7.01;100.00
18678;BME280;9469;51.114;13.914;2022-12-18T07:03:13;100484.38;;;-6.75;100.00
18678;BME280;9469;51.114;13.914;2022-12-18T07:08:21;100495.31;;;-6.81;100.00
18678;BME280;9469;51.114;13.914;2022-12-18T07:13:26;100498.44;;;-6.87;100.00
18678;BME280;9469;51.114;13.914;2022-12-18T07:18:31;100497.38;;;-6.67;100.00
18678;BME280;9469;51.114;13.914;2022-12-18T07:23:39;100503.53;;;-6.50;100.00
18678;BME280;9469;51.114;13.914;2022-12-18T07:28:48;100496.66;;;-6.41;100.00
18678;BME280;9469;51.114;13.914;2022-12-18T07:33:53;100502.66;;;-6.41;100.00
18678;BME280;9469;51.114;13.914;2022-12-18T07:39:01;100506.13;;;-6.32;100.00
18678;BME280;9469;51.114;13.914;2022-12-18T07:44:06;100522.53;;;-6.24;100.00
18678;BME280;9469;51.114;13.914;2022-12-18T07:49:13;100534.81;;;-6.08;100.00
18678;BME280;9469;51.114;13.914;2022-12-18T07:54:21;100536.38;;;-5.98;100.00
18678;BME280;9469;51.114;13.914;2022-12-18T07:59:26;100537.72;;;-5.94;100.00
18678;BME280;9469;51.114;13.914;2022-12-18T08:04:31;100531.13;;;-5.88;100.00
18678;BME280;9469;51.114;13.914;2022-12-18T08:09:39;100528.22;;;-5.85;100.00
18678;BME280;9469;51.114;13.914;2022-12-18T08:14:44;100514.63;;;-5.79;100.00
18678;BME280;9469;51.114;13.914;2022-12-18T08:19:49;100500.44;;;-5.67;100.00
18678;BME280;9469;51.114;13.914;2022-12-18T08:24:58;100506.00;;;-5.62;100.00
18678;BME280;9469;51.114;13.914;2022-12-18T08:30:04;100500.25;;;-5.48;100.00
18678;BME280;9469;51.114;13.914;2022-12-18T08:35:09;100509.03;;;-5.41;100.00
18678;BME280;9469;51.114;13.914;2022-12-18T08:40:21;100507.06;;;-5.13;100.00
18678;BME280;9469;51.114;13.914;2022-12-18T08:45:26;100507.19;;;-5.23;100.00
18678;BME280;9469;51.114;13.914;2022-12-18T08:50:31;100506.94;;;-5.03;100.00
18678;BME280;9469;51.114;13.914;2022-12-18T08:55:38;100508.41;;;-5.01;100.00
18678;BME280;9469;51.114;13.914;2022-12-18T09:00:51;100519.69;;;-4.84;100.00
18678;BME280;9469;51.114;13.914;2022-12-18T09:05:56;100509.94;;;-4.82;100.00
18678;BME280;9469;51.114;13.914;2022-12-18T09:11:04;100521.34;;;-4.67;100.00
18678;BME280;9469;51.114;13.914;2022-12-18T09:16:09;100534.97;;;-4.65;100.00
18678;BME280;9469;51.114;13.914;2022-12-18T09:21:15;100530.81;;;-4.50;100.00
18678;BME280;9469;51.114;13.914;2022-12-18T09:26:25;100547.06;;;-4.40;100.00
18678;BME280;9469;51.114;13.914;2022-12-18T09:31:31;100543.50;;;-4.39;100.00
18678;BME280;9469;51.114;13.914;2022-12-18T09:36:37;100554.53;;;-4.29;100.00
18678;BME280;9469;51.114;13.914;2022-12-18T09:41:51;100556.66;;;-4.24;100.00
18678;BME280;9469;51.114;13.914;2022-12-18T09:47:08;100555.06;;;-4.25;100.00
18678;BME280;9469;51.114;13.914;2022-12-18T09:52:19;100554.25;;;-4.10;100.00
18678;BME280;9469;51.114;13.914;2022-12-18T09:57:29;100551.50;;;-4.08;100.00
18678;BME280;9469;51.114;13.914;2022-12-18T10:02:36;100545.00;;;-3.96;100.00
18678;BME280;9469;51.114;13.914;2022-12-18T10:07:50;100531.53;;;-4.08;100.00
18678;BME280;9469;51.114;13.914;2022-12-18T10:13:07;100523.91;;;-4.09;100.00
18678;BME280;9469;51.114;13.914;2022-12-18T10:18:22;100506.00;;;-4.12;100.00
18678;BME280;9469;51.114;13.914;2022-12-18T10:23:36;100493.81;;;-4.04;100.00
18678;BME280;9469;51.114;13.914;2022-12-18T10:28:53;100493.31;;;-3.83;100.00
18678;BME280;9469;51.114;13.914;2022-12-18T10:34:09;100480.00;;;-3.88;100.00
18678;BME280;9469;51.114;13.914;2022-12-18T10:39:19;100474.34;;;-3.92;100.00
18678;BME280;9469;51.114;13.914;2022-12-18T10:44:28;100473.19;;;-3.89;100.00
18678;BME280;9469;51.114;13.914;2022-12-18T10:49:35;100465.06;;;-3.78;100.00
18678;BME280;9469;51.114;13.914;2022-12-18T10:54:45;100461.94;;;-3.66;100.00
18678;BME280;9469;51.114;13.914;2022-12-18T10:59:55;100453.66;;;-3.69;100.00
18678;BME280;9469;51.114;13.914;2022-12-18T11:05:01;100461.31;;;-3.76;100.00
18678;BME280;9469;51.114;13.914;2022-12-18T11:10:16;100464.34;;;-3.64;100.00
18678;BME280;9469;51.114;13.914;2022-12-18T11:15:27;100453.81;;;-3.63;100.00
18678;BME280;9469;51.114;13.914;2022-12-18T11:20:35;100453.00;;;-3.71;100.00
18678;BME280;9469;51.114;13.914;2022-12-18T11:25:51;100440.13;;;-3.56;100.00
18678;BME280;9469;51.114;13.914;2022-12-18T11:31:18;100434.81;;;-3.32;100.00
18678;BME280;9469;51.114;13.914;2022-12-18T11:36:29;100441.63;;;-3.23;100.00
18678;BME280;9469;51.114;13.914;2022-12-18T11:41:41;100435.31;;;-2.98;100.00
18678;BME280;9469;51.114;13.914;2022-12-18T11:47:12;100435.19;;;-2.74;100.00
18678;BME280;9469;51.114;13.914;2022-12-18T11:52:23;100436.97;;;-3.05;100.00
18678;BME280;9469;51.114;13.914;2022-12-18T11:57:35;100444.09;;;-2.68;100.00
18678;BME280;9469;51.114;13.914;2022-12-18T12:03:02;100445.03;;;-2.61;100.00
18678;BME280;9469;51.114;13.914;2022-12-18T12:08:16;100426.88;;;-2.69;100.00
18678;BME280;9469;51.114;13.914;2022-12-18T12:13:34;100435.75;;;-2.86;100.00
18678;BME280;9469;51.114;13.914;2022-12-18T12:18:55;100451.53;;;-2.35;100.00
18678;BME280;9469;51.114;13.914;2022-12-18T12:24:16;100455.66;;;-2.63;100.00
18678;BME280;9469;51.114;13.914;2022-12-18T12:29:35;100444.94;;;-2.45;100.00
18678;BME280;9469;51.114;13.914;2022-12-18T12:34:55;100455.91;;;-1.75;98.91
18678;BME280;9469;51.114;13.914;2022-12-18T12:40:13;100475.38;;;-2.00;97.10
18678;BME280;9469;51.114;13.914;2022-12-18T12:45:49;100478.47;;;-1.82;96.73
18678;BME280;9469;51.114;13.914;2022-12-18T12:50:58;100478.56;;;-1.90;96.59
18678;BME280;9469;51.114;13.914;2022-12-18T12:56:06;100478.19;;;-2.47;98.37
18678;BME280;9469;51.114;13.914;2022-12-18T13:01:21;100461.59;;;-2.77;99.75
18678;BME280;9469;51.114;13.914;2022-12-18T13:06:40;100459.16;;;-2.78;100.00
18678;BME280;9469;51.114;13.914;2022-12-18T13:11:48;100460.84;;;-2.63;100.00
18678;BME280;9469;51.114;13.914;2022-12-18T13:17:26;100463.00;;;-3.05;100.00
18678;BME280;9469;51.114;13.914;2022-12-18T13:22:40;100470.00;;;-3.44;100.00
18678;BME280;9469;51.114;13.914;2022-12-18T13:27:59;100466.84;;;-3.79;100.00
18678;BME280;9469;51.114;13.914;2022-12-18T13:39:33;100456.94;;;-3.99;100.00
18678;BME280;9469;51.114;13.914;2022-12-18T13:44:40;100456.47;;;-4.19;100.00
18678;BME280;9469;51.114;13.914;2022-12-18T13:49:46;100467.34;;;-4.15;100.00
18678;BME280;9469;51.114;13.914;2022-12-18T13:54:56;100474.50;;;-4.17;100.00
18678;BME280;9469;51.114;13.914;2022-12-18T14:00:23;100455.34;;;-4.00;100.00
18678;BME280;9469;51.114;13.914;2022-12-18T14:05:33;100461.97;;;-3.90;100.00
18678;BME280;9469;51.114;13.914;2022-12-18T14:10:48;100457.78;;;-4.15;100.00
18678;BME280;9469;51.114;13.914;2022-12-18T14:15:56;100470.91;;;-4.24;100.00
18678;BME280;9469;51.114;13.914;2022-12-18T14:21:06;100485.03;;;-4.43;100.00
18678;BME280;9469;51.114;13.914;2022-12-18T14:26:27;100472.69;;;-4.57;100.00
18678;BME280;9469;51.114;13.914;2022-12-18T14:31:32;100460.63;;;-4.74;100.00
18678;BME280;9469;51.114;13.914;2022-12-18T14:36:37;100459.31;;;-4.78;100.00
18678;BME280;9469;51.114;13.914;2022-12-18T14:41:45;100449.91;;;-4.87;100.00
18678;BME280;9469;51.114;13.914;2022-12-18T14:46:52;100431.72;;;-4.95;100.00
18678;BME280;9469;51.114;13.914;2022-12-18T14:52:02;100418.44;;;-4.84;100.00
18678;BME280;9469;51.114;13.914;2022-12-18T14:57:21;100436.91;;;-4.79;100.00
18678;BME280;9469;51.114;13.914;2022-12-18T15:02:28;100446.50;;;-4.80;100.00
18678;BME280;9469;51.114;13.914;2022-12-18T15:07:40;100458.19;;;-4.76;100.00
18678;BME280;9469;51.114;13.914;2022-12-18T15:13:07;100445.69;;;-4.80;100.00
18678;BME280;9469;51.114;13.914;2022-12-18T15:18:15;100452.50;;;-4.79;100.00
18678;BME280;9469;51.114;13.914;2022-12-18T15:23:24;100448.09;;;-4.95;100.00
18678;BME280;9469;51.114;13.914;2022-12-18T15:28:35;100449.19;;;-5.05;100.00
18678;BME280;9469;51.114;13.914;2022-12-18T15:33:42;100440.94;;;-5.09;100.00
18678;BME280;9469;51.114;13.914;2022-12-18T15:38:49;100452.09;;;-5.09;100.00
18678;BME280;9469;51.114;13.914;2022-12-18T15:43:56;100449.25;;;-4.89;100.00
18678;BME280;9469;51.114;13.914;2022-12-18T15:49:02;100444.00;;;-5.14;100.00
18678;BME280;9469;51.114;13.914;2022-12-18T15:54:11;100445.44;;;-5.11;100.00
18678;BME280;9469;51.114;13.914;2022-12-18T15:59:20;100442.19;;;-5.13;100.00
18678;BME280;9469;51.114;13.914;2022-12-18T16:04:25;100424.19;;;-5.23;100.00
18678;BME280;9469;51.114;13.914;2022-12-18T16:09:30;100426.66;;;-4.97;100.00
18678;BME280;9469;51.114;13.914;2022-12-18T16:14:38;100419.94;;;-5.24;100.00
18678;BME280;9469;51.114;13.914;2022-12-18T16:19:44;100415.09;;;-5.19;100.00
18678;BME280;9469;51.114;13.914;2022-12-18T16:24:50;100424.31;;;-5.32;100.00
18678;BME280;9469;51.114;13.914;2022-12-18T16:29:59;100410.56;;;-5.25;100.00
18678;BME280;9469;51.114;13.914;2022-12-18T16:35:05;100413.81;;;-5.23;100.00
18678;BME280;9469;51.114;13.914;2022-12-18T16:40:12;100396.31;;;-5.13;100.00
18678;BME280;9469;51.114;13.914;2022-12-18T16:45:20;100395.94;;;-5.26;100.00
18678;BME280;9469;51.114;13.914;2022-12-18T16:50:28;100391.75;;;-5.19;100.00
18678;BME280;9469;51.114;13.914;2022-12-18T16:55:36;100397.44;;;-5.15;100.00
18678;BME280;9469;51.114;13.914;2022-12-18T17:00:44;100400.00;;;-5.23;100.00
18678;BME280;9469;51.114;13.914;2022-12-18T17:05:50;100399.22;;;-5.16;100.00
18678;BME280;9469;51.114;13.914;2022-12-18T17:10:56;100395.47;;;-5.13;100.00
18678;BME280;9469;51.114;13.914;2022-12-18T17:16:05;100395.00;;;-5.09;100.00
18678;BME280;9469;51.114;13.914;2022-12-18T17:21:12;100397.91;;;-5.20;100.00
18678;BME280;9469;51.114;13.914;2022-12-18T17:26:19;100399.19;;;-5.24;100.00
18678;BME280;9469;51.114;13.914;2022-12-18T17:31:29;100396.13;;;-5.27;100.00
18678;BME280;9469;51.114;13.914;2022-12-18T17:36:34;100382.66;;;-5.23;100.00
18678;BME280;9469;51.114;13.914;2022-12-18T17:41:42;100381.97;;;-5.33;100.00
18678;BME280;9469;51.114;13.914;2022-12-18T17:46:50;100386.84;;;-5.30;100.00
18678;BME280;9469;51.114;13.914;2022-12-18T17:51:56;100366.09;;;-5.30;100.00
18678;BME280;9469;51.114;13.914;2022-12-18T17:57:02;100371.94;;;-5.28;100.00
18678;BME280;9469;51.114;13.914;2022-12-18T18:02:11;100358.69;;;-5.09;100.00
18678;BME280;9469;51.114;13.914;2022-12-18T18:07:21;100352.06;;;-5.03;100.00
18678;BME280;9469;51.114;13.914;2022-12-18T18:12:28;100355.13;;;-5.07;100.00
18678;BME280;9469;51.114;13.914;2022-12-18T18:17:49;100356.41;;;-5.03;100.00
18678;BME280;9469;51.114;13.914;2022-12-18T18:22:54;100351.88;;;-5.01;100.00
18678;BME280;9469;51.114;13.914;2022-12-18T18:28:00;100354.03;;;-4.89;100.00
18678;BME280;9469;51.114;13.914;2022-12-18T18:33:08;100347.50;;;-4.93;100.00
18678;BME280;9469;51.114;13.914;2022-12-18T18:38:16;100344.09;;;-5.10;100.00
18678;BME280;9469;51.114;13.914;2022-12-18T18:43:21;100330.47;;;-5.12;100.00
18678;BME280;9469;51.114;13.914;2022-12-18T18:48:31;100322.72;;;-4.95;100.00
18678;BME280;9469;51.114;13.914;2022-12-18T18:53:40;100317.81;;;-4.90;100.00
18678;BME280;9469;51.114;13.914;2022-12-18T18:58:45;100314.94;;;-4.95;100.00
18678;BME280;9469;51.114;13.914;2022-12-18T19:03:56;100302.59;;;-4.85;100.00
18678;BME280;9469;51.114;13.914;2022-12-18T19:09:03;100304.69;;;-4.97;100.00
18678;BME280;9469;51.114;13.914;2022-12-18T19:14:10;100308.91;;;-5.04;100.00
18678;BME280;9469;51.114;13.914;2022-12-18T19:19:19;100308.41;;;-4.99;100.00
18678;BME280;9469;51.114;13.914;2022-12-18T19:24:24;100273.88;;;-5.08;100.00
18678;BME280;9469;51.114;13.914;2022-12-18T19:29:29;100276.78;;;-5.03;100.00
18678;BME280;9469;51.114;13.914;2022-12-18T19:34:39;100270.47;;;-4.92;100.00
18678;BME280;9469;51.114;13.914;2022-12-18T19:39:49;100235.91;;;-5.01;100.00
18678;BME280;9469;51.114;13.914;2022-12-18T19:44:59;100262.34;;;-4.97;100.00
18678;BME280;9469;51.114;13.914;2022-12-18T19:50:09;100264.78;;;-5.04;100.00
18678;BME280;9469;51.114;13.914;2022-12-18T19:55:24;100253.44;;;-5.03;100.00
18678;BME280;9469;51.114;13.914;2022-12-18T20:00:29;100244.84;;;-5.03;100.00
18678;BME280;9469;51.114;13.914;2022-12-18T20:05:40;100241.28;;;-5.02;100.00
18678;BME280;9469;51.114;13.914;2022-12-18T20:10:45;100238.34;;;-4.99;100.00
18678;BME280;9469;51.114;13.914;2022-12-18T20:15:52;100248.88;;;-4.93;100.00
18678;BME280;9469;51.114;13.914;2022-12-18T20:21:01;100237.06;;;-4.95;100.00
18678;BME280;9469;51.114;13.914;2022-12-18T20:26:13;100235.91;;;-4.85;100.00
18678;BME280;9469;51.114;13.914;2022-12-18T20:31:22;100252.78;;;-4.81;100.00
18678;BME280;9469;51.114;13.914;2022-12-18T20:36:33;100236.22;;;-4.72;100.00
18678;BME280;9469;51.114;13.914;2022-12-18T20:41:40;100247.25;;;-4.62;100.00
18678;BME280;9469;51.114;13.914;2022-12-18T20:46:47;100239.41;;;-4.46;100.00
18678;BME280;9469;51.114;13.914;2022-12-18T20:51:56;100234.38;;;-4.39;100.00
18678;BME280;9469;51.114;13.914;2022-12-18T20:57:04;100221.84;;;-4.36;100.00
18678;BME280;9469;51.114;13.914;2022-12-18T21:02:11;100240.66;;;-4.33;100.00
18678;BME280;9469;51.114;13.914;2022-12-18T21:07:23;100231.25;;;-4.34;100.00
18678;BME280;9469;51.114;13.914;2022-12-18T21:12:29;100206.28;;;-4.44;100.00
18678;BME280;9469;51.114;13.914;2022-12-18T21:18:05;100216.03;;;-4.46;100.00
18678;BME280;9469;51.114;13.914;2022-12-18T21:23:13;100234.38;;;-4.47;100.00
18678;BME280;9469;51.114;13.914;2022-12-18T21:28:18;100226.06;;;-4.43;100.00
18678;BME280;9469;51.114;13.914;2022-12-18T21:33:23;100235.16;;;-4.30;100.00
18678;BME280;9469;51.114;13.914;2022-12-18T21:38:32;100218.09;;;-4.33;100.00
18678;BME280;9469;51.114;13.914;2022-12-18T21:43:37;100218.69;;;-4.15;100.00
18678;BME280;9469;51.114;13.914;2022-12-18T21:48:54;100218.00;;;-4.09;100.00
18678;BME280;9469;51.114;13.914;2022-12-18T21:54:02;100217.88;;;-4.15;100.00
18678;BME280;9469;51.114;13.914;2022-12-18T21:59:08;100217.72;;;-4.22;100.00
18678;BME280;9469;51.114;13.914;2022-12-18T22:04:14;100211.44;;;-4.27;100.00
18678;BME280;9469;51.114;13.914;2022-12-18T22:09:23;100202.50;;;-4.33;100.00
18678;BME280;9469;51.114;13.914;2022-12-18T22:14:28;100206.38;;;-4.29;100.00
18678;BME280;9469;51.114;13.914;2022-12-18T22:19:34;100198.91;;;-4.24;100.00
18678;BME280;9469;51.114;13.914;2022-12-18T22:24:46;100186.16;;;-4.11;100.00
18678;BME280;9469;51.114;13.914;2022-12-18T22:29:51;100198.50;;;-4.05;100.00
18678;BME280;9469;51.114;13.914;2022-12-18T22:35:09;100191.38;;;-4.11;100.00
18678;BME280;9469;51.114;13.914;2022-12-18T22:40:21;100188.13;;;-4.05;100.00
18678;BME280;9469;51.114;13.914;2022-12-18T22:45:27;100170.75;;;-4.12;100.00
18678;BME280;9469;51.114;13.914;2022-12-18T22:50:34;100176.66;;;-4.26;100.00
18678;BME280;9469;51.114;13.914;2022-12-18T22:55:42;100173.28;;;-4.35;100.00
18678;BME280;9469;51.114;13.914;2022-12-18T23:00:47;100163.69;;;-4.26;100.00
18678;BME280;9469;51.114;13.914;2022-12-18T23:05:52;100159.63;;;-4.29;100.00
18678;BME280;9469;51.114;13.914;2022-12-18T23:11:00;100150.22;;;-4.30;100.00
18678;BME280;9469;51.114;13.914;2022-12-18T23:16:06;100146.31;;;-4.34;100.00
18678;BME280;9469;51.114;13.914;2022-12-18T23:21:13;100126.41;;;-4.42;100.00
18678;BME280;9469;51.114;13.914;2022-12-18T23:26:23;100106.44;;;-4.41;100.00
18678;BME280;9469;51.114;13.914;2022-12-18T23:31:30;100101.75;;;-4.46;100.00
18678;BME280;9469;51.114;13.914;2022-12-18T23:36:35;100103.69;;;-4.48;100.00
18678;BME280;9469;51.114;13.914;2022-12-18T23:41:50;100091.06;;;-4.51;100.00
18678;BME280;9469;51.114;13.914;2022-12-18T23:46:55;100085.50;;;-4.48;100.00
18678;BME280;9469;51.114;13.914;2022-12-18T23:52:00;100079.41;;;-4.55;100.00
18678;BME280;9469;51.114;13.914;2022-12-18T23:57:07;100077.59;;;-4.54;100.00
